createdAt,value
2023-02-01T05:57:39.476Z,99421.91
2023-02-01T06:00:06.987Z,99423.63
2023-02-01T09:54:28.488Z,99363.81
2023-02-01T09:57:01.833Z,99361.58
2023-02-01T09:59:55.326Z,99367.09
2023-02-01T10:02:27.817Z,99365.29
2023-02-01T10:04:57.999Z,99364.14
2023-02-01T10:07:33.121Z,99365.92
2023-02-01T10:10:10.787Z,99361.23
2023-02-01T10:13:09.064Z,99360.23
2023-02-01T10:15:57.405Z,99357.88
2023-02-01T10:18:37.856Z,99359.01
2023-02-01T10:21:48.672Z,99358.92
2023-02-01T10:28:22.914Z,99353.38
2023-02-01T10:31:54.609Z,99343.94
2023-02-01T10:39:23.027Z,99337.74
2023-02-01T10:43:10.797Z,99331.45
2023-02-01T10:46:08.968Z,99336.67
2023-02-01T10:49:14.515Z,99332.57
2023-02-01T10:52:19.950Z,99335.36
2023-02-01T10:54:55.363Z,99329.67
2023-02-01T10:57:29.576Z,99331.36
2023-02-01T11:00:08.033Z,99328.19
2023-02-01T11:02:46.366Z,99328.43
2023-02-01T11:05:25.671Z,99327.12
2023-02-01T11:08:05.725Z,99330.81
2023-02-01T11:10:39.210Z,99322.46
2023-02-01T11:13:17.138Z,99325.68
2023-02-01T11:15:50.043Z,99323.89
2023-02-01T11:18:22.739Z,99320.23
2023-02-01T11:20:53.265Z,99316.55
2023-02-01T11:23:23.804Z,99309.34
2023-02-01T11:25:56.211Z,99302.36
2023-02-01T11:28:30.402Z,99298.82
2023-02-01T11:31:00.833Z,99296.17
2023-02-01T11:33:36.374Z,99292.55
2023-02-01T11:36:16.657Z,99292.07
2023-02-01T11:38:55.057Z,99289.20
2023-02-01T11:41:27.977Z,99287.76
2023-02-01T11:43:57.921Z,99284.90
2023-02-01T11:46:30.884Z,99281.96
2023-02-01T11:49:15.419Z,99282.19
2023-02-01T11:52:11.758Z,99279.95
2023-02-01T11:54:59.663Z,99275.26
2023-02-01T11:57:55.939Z,99275.52
2023-02-01T12:00:36.416Z,99279.04
2023-02-01T12:03:35.406Z,99278.73
2023-02-01T12:06:14.081Z,99282.27
2023-02-01T12:09:37.730Z,99279.05
2023-02-01T12:12:25.299Z,99281.86
2023-02-01T12:14:53.337Z,99277.73
2023-02-01T12:17:50.111Z,99280.48
2023-02-01T12:20:36.776Z,99290.13
2023-02-01T12:23:17.261Z,99286.48
2023-02-01T12:25:54.659Z,99287.02
2023-02-01T12:28:28.629Z,99288.42
2023-02-01T12:31:11.048Z,99295.55
2023-02-01T12:33:58.959Z,99294.14
2023-02-01T12:36:41.409Z,99285.50
2023-02-01T12:39:32.029Z,99281.16
2023-02-01T12:42:07.220Z,99284.52
2023-02-01T12:44:46.520Z,99283.09
2023-02-01T12:47:17.695Z,99281.53
2023-02-01T12:49:50.566Z,99282.05
2023-02-01T12:52:24.651Z,99281.66
2023-02-01T12:55:00.139Z,99280.34
2023-02-01T12:57:35.374Z,99276.26
2023-02-01T13:00:07.786Z,99277.86
2023-02-01T13:02:45.925Z,99275.15
2023-02-01T13:05:18.331Z,99274.20
2023-02-01T13:08:08.860Z,99274.45
2023-02-01T13:10:42.251Z,99271.02
2023-02-01T13:13:41.761Z,99274.69
2023-02-01T13:16:12.720Z,99275.60
2023-02-01T13:18:44.248Z,99273.77
2023-02-01T13:21:17.908Z,99275.39
2023-02-01T13:23:47.461Z,99277.01
2023-02-01T13:26:15.701Z,99280.18
2023-02-01T13:29:17.495Z,99276.98
2023-02-01T13:32:07.101Z,99272.22
2023-02-01T13:35:03.559Z,99274.20
2023-02-01T13:38:09.034Z,99271.20
2023-02-01T13:40:44.417Z,99275.46
